Main page
METAR-TAF:

METAR-TAF

Airports :

Clinton Municipal Airport

Clinton, Iowa, United States

latitude: 41-50N, longitude: 090-20W, elevation: 708 ft

Current weather observation

The report was made 58 minutes ago, at 07:56 UTC
Wind 5 mph from the West/Southwest
Temperature 41°F
Humidity 56%
Pressure 30.11 in. Hg
Visibility: 10 miles
Clear sky

METAR: KCWI 220756Z AUTO 24004KT 10SM CLR 05/M03 A3011 RMK AO2 SLP201 T00501028

Time: 03:54 (08:54 UTC)


TAF: missing

Weather observations and forecasts of more than 4000 airports (METAR and TAF reports).

The available stations are represented by yellow and red dots on the map.

Hover mouse over dot to see the name of the station.

Then click to see weather observations and forecasts.

To change the map : click on the green buttons with a black cross to zoom in, on the green button with a dash to zoom out, or on the green arrows for adjacent maps.


METAR-TAF: